sensor_id;sensor_type;location;lat;lon;timestamp;pressure;altitude;pressure_sealevel;temperature;humidity
81397;BME280;70852;49.908;8.126;2023-09-08T00:02:26;100468.88;;;15.52;78.41
81397;BME280;70852;49.908;8.126;2023-09-08T00:04:54;100468.63;;;15.45;77.97
81397;BME280;70852;49.908;8.126;2023-09-08T00:07:20;100463.41;;;15.44;78.30
81397;BME280;70852;49.908;8.126;2023-09-08T00:09:45;100457.16;;;15.47;77.95
81397;BME280;70852;49.908;8.126;2023-09-08T00:12:13;100457.72;;;15.40;78.08
81397;BME280;70852;49.908;8.126;2023-09-08T00:14:41;100458.31;;;15.33;78.23
81397;BME280;70852;49.908;8.126;2023-09-08T00:17:06;100459.00;;;15.30;78.53
81397;BME280;70852;49.908;8.126;2023-09-08T00:19:34;100460.16;;;15.29;78.33
81397;BME280;70852;49.908;8.126;2023-09-08T00:21:59;100463.63;;;15.14;78.93
81397;BME280;70852;49.908;8.126;2023-09-08T00:24:30;100461.44;;;15.32;78.67
81397;BME280;70852;49.908;8.126;2023-09-08T00:26:55;100460.75;;;15.23;78.46
81397;BME280;70852;49.908;8.126;2023-09-08T00:29:21;100452.03;;;15.24;78.65
81397;BME280;70852;49.908;8.126;2023-09-08T00:31:48;100464.78;;;15.13;79.38
81397;BME280;70852;49.908;8.126;2023-09-08T00:34:14;100461.41;;;15.20;79.14
81397;BME280;70852;49.908;8.126;2023-09-08T00:36:41;100458.78;;;15.23;78.79
81397;BME280;70852;49.908;8.126;2023-09-08T00:39:09;100465.16;;;15.24;79.29
81397;BME280;70852;49.908;8.126;2023-09-08T00:41:37;100464.44;;;15.27;79.15
81397;BME280;70852;49.908;8.126;2023-09-08T00:44:02;100457.25;;;15.14;78.76
81397;BME280;70852;49.908;8.126;2023-09-08T00:46:28;100451.09;;;15.08;79.38
81397;BME280;70852;49.908;8.126;2023-09-08T00:48:55;100452.69;;;14.97;79.66
81397;BME280;70852;49.908;8.126;2023-09-08T00:51:25;100457.34;;;14.93;79.43
81397;BME280;70852;49.908;8.126;2023-09-08T00:53:51;100465.69;;;14.93;79.50
81397;BME280;70852;49.908;8.126;2023-09-08T00:56:16;100458.22;;;14.85;79.48
81397;BME280;70852;49.908;8.126;2023-09-08T00:58:44;100467.91;;;14.67;80.78
81397;BME280;70852;49.908;8.126;2023-09-08T01:01:12;100465.72;;;14.72;80.90
81397;BME280;70852;49.908;8.126;2023-09-08T01:03:38;100468.41;;;14.81;80.14
81397;BME280;70852;49.908;8.126;2023-09-08T01:06:05;100466.91;;;14.83;80.95
81397;BME280;70852;49.908;8.126;2023-09-08T01:08:34;100466.22;;;14.86;79.95
81397;BME280;70852;49.908;8.126;2023-09-08T01:11:02;100465.41;;;14.86;80.05
81397;BME280;70852;49.908;8.126;2023-09-08T01:13:30;100466.13;;;14.83;79.77
81397;BME280;70852;49.908;8.126;2023-09-08T01:15:58;100471.50;;;14.67;80.40
81397;BME280;70852;49.908;8.126;2023-09-08T01:18:23;100464.22;;;14.75;80.08
81397;BME280;70852;49.908;8.126;2023-09-08T01:21:12;100471.69;;;14.62;79.82
81397;BME280;70852;49.908;8.126;2023-09-08T01:24:17;100472.50;;;14.62;80.46
81397;BME280;70852;49.908;8.126;2023-09-08T01:26:47;100476.13;;;14.42;81.06
81397;BME280;70852;49.908;8.126;2023-09-08T01:29:18;100465.38;;;14.41;81.44
81397;BME280;70852;49.908;8.126;2023-09-08T01:31:44;100470.44;;;14.39;80.96
81397;BME280;70852;49.908;8.126;2023-09-08T01:34:11;100461.91;;;14.44;80.87
81397;BME280;70852;49.908;8.126;2023-09-08T01:36:37;100470.28;;;14.56;80.70
81397;BME280;70852;49.908;8.126;2023-09-08T01:39:02;100463.25;;;14.58;80.35
81397;BME280;70852;49.908;8.126;2023-09-08T01:41:28;100466.09;;;14.50;80.70
81397;BME280;70852;49.908;8.126;2023-09-08T01:43:54;100471.44;;;14.34;80.95
81397;BME280;70852;49.908;8.126;2023-09-08T01:46:19;100465.16;;;14.25;81.78
81397;BME280;70852;49.908;8.126;2023-09-08T01:48:47;100465.22;;;14.16;81.92
81397;BME280;70852;49.908;8.126;2023-09-08T01:51:12;100456.22;;;14.19;82.17
81397;BME280;70852;49.908;8.126;2023-09-08T01:53:42;100473.06;;;14.14;82.46
81397;BME280;70852;49.908;8.126;2023-09-08T01:56:10;100470.44;;;14.18;82.36
81397;BME280;70852;49.908;8.126;2023-09-08T01:58:37;100468.25;;;14.03;82.50
81397;BME280;70852;49.908;8.126;2023-09-08T02:01:03;100472.00;;;14.07;82.68
81397;BME280;70852;49.908;8.126;2023-09-08T02:03:33;100470.38;;;14.06;83.12
81397;BME280;70852;49.908;8.126;2023-09-08T02:06:01;100470.47;;;14.09;82.81
81397;BME280;70852;49.908;8.126;2023-09-08T02:08:26;100465.00;;;14.01;82.97
81397;BME280;70852;49.908;8.126;2023-09-08T02:10:53;100470.63;;;14.13;82.09
81397;BME280;70852;49.908;8.126;2023-09-08T02:13:19;100468.00;;;13.96;82.49
81397;BME280;70852;49.908;8.126;2023-09-08T02:15:47;100452.47;;;14.15;82.08
81397;BME280;70852;49.908;8.126;2023-09-08T02:18:12;100466.84;;;13.97;82.26
81397;BME280;70852;49.908;8.126;2023-09-08T02:20:38;100465.53;;;13.94;81.91
81397;BME280;70852;49.908;8.126;2023-09-08T02:23:05;100462.34;;;13.83;82.10
81397;BME280;70852;49.908;8.126;2023-09-08T02:25:33;100468.97;;;13.70;82.74
81397;BME280;70852;49.908;8.126;2023-09-08T02:27:58;100459.16;;;13.73;82.69
81397;BME280;70852;49.908;8.126;2023-09-08T02:30:29;100466.38;;;13.65;83.20
81397;BME280;70852;49.908;8.126;2023-09-08T02:32:54;100461.69;;;13.57;83.23
81397;BME280;70852;49.908;8.126;2023-09-08T02:35:23;100463.72;;;13.69;83.57
81397;BME280;70852;49.908;8.126;2023-09-08T02:37:51;100459.22;;;13.64;83.59
81397;BME280;70852;49.908;8.126;2023-09-08T02:40:17;100458.06;;;13.65;83.98
81397;BME280;70852;49.908;8.126;2023-09-08T02:42:46;100464.16;;;13.79;83.49
81397;BME280;70852;49.908;8.126;2023-09-08T02:45:14;100468.13;;;13.70;83.93
81397;BME280;70852;49.908;8.126;2023-09-08T02:47:44;100470.78;;;13.66;83.49
81397;BME280;70852;49.908;8.126;2023-09-08T02:50:09;100466.84;;;13.67;83.94
81397;BME280;70852;49.908;8.126;2023-09-08T02:52:35;100465.69;;;13.68;83.51
81397;BME280;70852;49.908;8.126;2023-09-08T02:55:00;100470.91;;;13.70;83.90
81397;BME280;70852;49.908;8.126;2023-09-08T02:57:26;100468.38;;;13.56;83.79
81397;BME280;70852;49.908;8.126;2023-09-08T02:59:54;100466.84;;;13.67;83.60
81397;BME280;70852;49.908;8.126;2023-09-08T03:02:21;100474.03;;;13.68;83.28
81397;BME280;70852;49.908;8.126;2023-09-08T03:04:50;100471.63;;;13.58;83.62
81397;BME280;70852;49.908;8.126;2023-09-08T03:07:17;100467.91;;;13.54;83.49
81397;BME280;70852;49.908;8.126;2023-09-08T03:09:45;100463.19;;;13.54;83.51
81397;BME280;70852;49.908;8.126;2023-09-08T03:12:10;100469.94;;;13.45;83.77
81397;BME280;70852;49.908;8.126;2023-09-08T03:14:43;100470.09;;;13.40;83.99
81397;BME280;70852;49.908;8.126;2023-09-08T03:17:11;100469.81;;;13.33;84.27
81397;BME280;70852;49.908;8.126;2023-09-08T03:19:38;100472.47;;;13.21;84.44
81397;BME280;70852;49.908;8.126;2023-09-08T03:22:06;100476.38;;;13.19;83.80
81397;BME280;70852;49.908;8.126;2023-09-08T03:24:31;100473.41;;;13.25;83.66
81397;BME280;70852;49.908;8.126;2023-09-08T03:26:57;100468.50;;;13.30;83.45
81397;BME280;70852;49.908;8.126;2023-09-08T03:29:24;100474.59;;;13.15;83.74
81397;BME280;70852;49.908;8.126;2023-09-08T03:31:50;100465.13;;;13.16;83.44
81397;BME280;70852;49.908;8.126;2023-09-08T03:34:17;100472.31;;;13.08;83.79
81397;BME280;70852;49.908;8.126;2023-09-08T03:36:46;100469.38;;;13.22;83.78
81397;BME280;70852;49.908;8.126;2023-09-08T03:39:16;100463.00;;;13.22;83.62
81397;BME280;70852;49.908;8.126;2023-09-08T03:41:41;100468.25;;;13.14;83.66
81397;BME280;70852;49.908;8.126;2023-09-08T03:44:09;100468.44;;;13.01;84.07
81397;BME280;70852;49.908;8.126;2023-09-08T03:46:34;100455.69;;;13.08;83.60
81397;BME280;70852;49.908;8.126;2023-09-08T03:48:59;100463.50;;;13.06;83.82
81397;BME280;70852;49.908;8.126;2023-09-08T03:51:27;100453.06;;;13.12;84.11
81397;BME280;70852;49.908;8.126;2023-09-08T03:53:53;100457.84;;;13.03;83.76
81397;BME280;70852;49.908;8.126;2023-09-08T03:56:18;100461.88;;;13.05;84.46
81397;BME280;70852;49.908;8.126;2023-09-08T03:58:45;100455.84;;;13.03;84.08
81397;BME280;70852;49.908;8.126;2023-09-08T04:01:10;100456.00;;;13.07;84.19
81397;BME280;70852;49.908;8.126;2023-09-08T04:03:36;100465.19;;;12.99;84.89
81397;BME280;70852;49.908;8.126;2023-09-08T04:06:01;100468.72;;;13.08;84.49
81397;BME280;70852;49.908;8.126;2023-09-08T04:08:29;100471.00;;;13.06;84.38
81397;BME280;70852;49.908;8.126;2023-09-08T04:10:56;100463.84;;;13.05;84.08
81397;BME280;70852;49.908;8.126;2023-09-08T04:13:24;100466.66;;;12.96;84.06
81397;BME280;70852;49.908;8.126;2023-09-08T04:15:49;100471.69;;;12.94;84.06
81397;BME280;70852;49.908;8.126;2023-09-08T04:18:14;100476.63;;;12.89;84.72
81397;BME280;70852;49.908;8.126;2023-09-08T04:20:40;100470.72;;;12.99;84.23
81397;BME280;70852;49.908;8.126;2023-09-08T04:23:05;100476.31;;;12.81;84.00
81397;BME280;70852;49.908;8.126;2023-09-08T04:25:33;100470.09;;;12.84;83.96
81397;BME280;70852;49.908;8.126;2023-09-08T04:28:01;100476.31;;;12.81;84.23
81397;BME280;70852;49.908;8.126;2023-09-08T04:30:32;100474.66;;;12.89;83.89
81397;BME280;70852;49.908;8.126;2023-09-08T04:32:57;100482.66;;;12.82;83.91
81397;BME280;70852;49.908;8.126;2023-09-08T04:35:23;100480.88;;;12.86;83.81
81397;BME280;70852;49.908;8.126;2023-09-08T04:37:50;100481.69;;;12.78;83.97
81397;BME280;70852;49.908;8.126;2023-09-08T04:40:16;100475.19;;;12.74;84.25
81397;BME280;70852;49.908;8.126;2023-09-08T04:42:43;100483.34;;;12.79;84.25
81397;BME280;70852;49.908;8.126;2023-09-08T04:45:14;100484.16;;;12.71;84.21
81397;BME280;70852;49.908;8.126;2023-09-08T04:47:39;100481.69;;;12.78;83.95
81397;BME280;70852;49.908;8.126;2023-09-08T04:50:05;100483.69;;;12.69;84.22
81397;BME280;70852;49.908;8.126;2023-09-08T04:52:30;100485.47;;;12.65;83.87
81397;BME280;70852;49.908;8.126;2023-09-08T04:54:55;100486.94;;;12.62;83.93
81397;BME280;70852;49.908;8.126;2023-09-08T04:57:20;100484.66;;;12.56;84.48
81397;BME280;70852;49.908;8.126;2023-09-08T04:59:46;100484.16;;;12.54;84.58
81397;BME280;70852;49.908;8.126;2023-09-08T05:02:18;100482.03;;;12.51;85.03
81397;BME280;70852;49.908;8.126;2023-09-08T05:04:45;100488.09;;;12.44;84.91
81397;BME280;70852;49.908;8.126;2023-09-08T05:07:10;100493.47;;;12.49;85.15
81397;BME280;70852;49.908;8.126;2023-09-08T05:09:40;100487.59;;;12.51;85.58
81397;BME280;70852;49.908;8.126;2023-09-08T05:12:08;100493.97;;;12.60;84.91
81397;BME280;70852;49.908;8.126;2023-09-08T05:14:36;100496.88;;;12.63;84.88
81397;BME280;70852;49.908;8.126;2023-09-08T05:17:06;100507.47;;;12.70;84.99
81397;BME280;70852;49.908;8.126;2023-09-08T05:19:31;100499.97;;;12.79;84.12
81397;BME280;70852;49.908;8.126;2023-09-08T05:21:56;100493.44;;;12.75;84.02
81397;BME280;70852;49.908;8.126;2023-09-08T05:24:24;100495.56;;;12.78;84.46
81397;BME280;70852;49.908;8.126;2023-09-08T05:26:51;100497.31;;;12.82;83.57
81397;BME280;70852;49.908;8.126;2023-09-08T05:29:19;100503.69;;;12.83;84.14
81397;BME280;70852;49.908;8.126;2023-09-08T05:31:44;100503.53;;;12.88;84.10
81397;BME280;70852;49.908;8.126;2023-09-08T05:34:10;100506.63;;;12.87;85.06
81397;BME280;70852;49.908;8.126;2023-09-08T05:36:35;100507.75;;;13.03;84.47
81397;BME280;70852;49.908;8.126;2023-09-08T05:39:03;100503.16;;;13.15;84.46
81397;BME280;70852;49.908;8.126;2023-09-08T05:41:31;100500.16;;;13.29;84.24
81397;BME280;70852;49.908;8.126;2023-09-08T05:43:58;100498.50;;;13.37;83.39
81397;BME280;70852;49.908;8.126;2023-09-08T05:46:24;100504.38;;;13.44;83.94
81397;BME280;70852;49.908;8.126;2023-09-08T05:48:49;100507.44;;;13.51;83.94
81397;BME280;70852;49.908;8.126;2023-09-08T05:51:14;100515.19;;;13.66;83.89
81397;BME280;70852;49.908;8.126;2023-09-08T05:53:40;100515.81;;;13.72;82.91
81397;BME280;70852;49.908;8.126;2023-09-08T05:56:10;100510.53;;;13.79;82.86
81397;BME280;70852;49.908;8.126;2023-09-08T05:58:36;100517.63;;;13.97;82.96
81397;BME280;70852;49.908;8.126;2023-09-08T06:01:02;100518.81;;;14.17;82.54
81397;BME280;70852;49.908;8.126;2023-09-08T06:03:28;100530.84;;;14.21;83.24
81397;BME280;70852;49.908;8.126;2023-09-08T06:05:56;100517.84;;;14.34;83.05
81397;BME280;70852;49.908;8.126;2023-09-08T06:08:26;100512.78;;;14.56;82.83
81397;BME280;70852;49.908;8.126;2023-09-08T06:10:54;100514.69;;;14.64;83.35
81397;BME280;70852;49.908;8.126;2023-09-08T06:13:19;100507.44;;;14.84;82.82
81397;BME280;70852;49.908;8.126;2023-09-08T06:15:44;100514.81;;;15.01;81.55
81397;BME280;70852;49.908;8.126;2023-09-08T06:18:12;100513.00;;;15.17;81.71
81397;BME280;70852;49.908;8.126;2023-09-08T06:20:46;100516.97;;;15.28;81.82
81397;BME280;70852;49.908;8.126;2023-09-08T06:23:20;100519.56;;;15.46;81.74
81397;BME280;70852;49.908;8.126;2023-09-08T06:25:45;100530.03;;;15.61;81.45
81397;BME280;70852;49.908;8.126;2023-09-08T06:28:18;100519.34;;;15.75;80.57
81397;BME280;70852;49.908;8.126;2023-09-08T06:30:46;100517.38;;;15.88;80.16
81397;BME280;70852;49.908;8.126;2023-09-08T06:33:14;100527.34;;;16.01;79.21
81397;BME280;70852;49.908;8.126;2023-09-08T06:35:43;100518.88;;;16.09;79.09
81397;BME280;70852;49.908;8.126;2023-09-08T06:38:11;100518.47;;;16.23;79.10
81397;BME280;70852;49.908;8.126;2023-09-08T06:40:39;100522.25;;;16.43;78.34
81397;BME280;70852;49.908;8.126;2023-09-08T06:43:04;100523.22;;;16.75;77.63
81397;BME280;70852;49.908;8.126;2023-09-08T06:45:30;100523.44;;;17.26;75.41
81397;BME280;70852;49.908;8.126;2023-09-08T06:47:58;100520.97;;;17.68;74.24
81397;BME280;70852;49.908;8.126;2023-09-08T06:50:27;100528.22;;;18.39;72.54
81397;BME280;70852;49.908;8.126;2023-09-08T06:52:56;100518.78;;;19.24;69.88
81397;BME280;70852;49.908;8.126;2023-09-08T06:55:21;100513.56;;;19.91;66.30
81397;BME280;70852;49.908;8.126;2023-09-08T06:57:47;100509.94;;;20.43;65.29
81397;BME280;70852;49.908;8.126;2023-09-08T07:00:13;100510.63;;;21.00;63.87
81397;BME280;70852;49.908;8.126;2023-09-08T07:02:39;100510.75;;;21.47;61.83
81397;BME280;70852;49.908;8.126;2023-09-08T07:05:04;100517.53;;;21.90;60.86
81397;BME280;70852;49.908;8.126;2023-09-08T07:07:35;100511.00;;;22.38;59.07
81397;BME280;70852;49.908;8.126;2023-09-08T07:10:06;100516.47;;;22.82;58.25
81397;BME280;70852;49.908;8.126;2023-09-08T07:12:31;100518.22;;;23.18;57.22
81397;BME280;70852;49.908;8.126;2023-09-08T07:15:01;100511.03;;;23.56;55.58
81397;BME280;70852;49.908;8.126;2023-09-08T07:17:29;100515.06;;;23.84;55.38
81397;BME280;70852;49.908;8.126;2023-09-08T07:19:56;100523.06;;;24.17;54.45
81397;BME280;70852;49.908;8.126;2023-09-08T07:22:24;100510.16;;;24.41;52.70
81397;BME280;70852;49.908;8.126;2023-09-08T07:24:52;100524.59;;;24.68;52.24
81397;BME280;70852;49.908;8.126;2023-09-08T07:27:17;100522.56;;;24.68;52.33
81397;BME280;70852;49.908;8.126;2023-09-08T07:29:43;100530.66;;;24.66;52.62
81397;BME280;70852;49.908;8.126;2023-09-08T07:32:13;100522.94;;;24.77;50.73
81397;BME280;70852;49.908;8.126;2023-09-08T07:34:40;100525.13;;;24.13;51.98
81397;BME280;70852;49.908;8.126;2023-09-08T07:37:06;100529.13;;;24.26;51.53
81397;BME280;70852;49.908;8.126;2023-09-08T07:39:32;100529.97;;;24.23;51.15
81397;BME280;70852;49.908;8.126;2023-09-08T07:42:00;100529.50;;;24.39;51.02
81397;BME280;70852;49.908;8.126;2023-09-08T07:44:28;100529.56;;;24.25;51.80
81397;BME280;70852;49.908;8.126;2023-09-08T07:46:56;100532.56;;;24.87;50.71
81397;BME280;70852;49.908;8.126;2023-09-08T07:49:22;100537.09;;;25.43;49.46
81397;BME280;70852;49.908;8.126;2023-09-08T07:51:48;100536.63;;;26.07;48.63
81397;BME280;70852;49.908;8.126;2023-09-08T07:54:13;100536.31;;;26.43;46.71
81397;BME280;70852;49.908;8.126;2023-09-08T07:56:38;100534.97;;;26.10;47.60
81397;BME280;70852;49.908;8.126;2023-09-08T07:59:08;100535.59;;;26.32;48.19
81397;BME280;70852;49.908;8.126;2023-09-08T08:01:33;100532.31;;;27.05;46.19
81397;BME280;70852;49.908;8.126;2023-09-08T08:03:59;100535.22;;;27.58;43.73
81397;BME280;70852;49.908;8.126;2023-09-08T08:06:28;100529.19;;;28.03;44.22
81397;BME280;70852;49.908;8.126;2023-09-08T08:08:58;100535.59;;;28.30;43.49
81397;BME280;70852;49.908;8.126;2023-09-08T08:11:26;100532.03;;;28.69;42.18
81397;BME280;70852;49.908;8.126;2023-09-08T08:13:53;100529.75;;;28.61;40.48
81397;BME280;70852;49.908;8.126;2023-09-08T08:16:18;100528.88;;;29.03;40.28
81397;BME280;70852;49.908;8.126;2023-09-08T08:18:49;100534.09;;;29.44;39.91
81397;BME280;70852;49.908;8.126;2023-09-08T08:21:16;100533.38;;;29.73;38.06
81397;BME280;70852;49.908;8.126;2023-09-08T08:23:41;100530.00;;;30.55;37.06
81397;BME280;70852;49.908;8.126;2023-09-08T08:26:07;100530.19;;;29.87;37.04
81397;BME280;70852;49.908;8.126;2023-09-08T08:28:34;100529.53;;;30.86;37.58
81397;BME280;70852;49.908;8.126;2023-09-08T08:31:02;100521.53;;;31.60;36.67
81397;BME280;70852;49.908;8.126;2023-09-08T08:33:28;100521.06;;;31.49;35.64
81397;BME280;70852;49.908;8.126;2023-09-08T08:35:58;100526.56;;;31.69;34.90
81397;BME280;70852;49.908;8.126;2023-09-08T08:38:26;100517.13;;;32.07;34.24
81397;BME280;70852;49.908;8.126;2023-09-08T08:40:53;100520.94;;;32.38;34.18
81397;BME280;70852;49.908;8.126;2023-09-08T08:43:21;100521.72;;;32.04;33.52
81397;BME280;70852;49.908;8.126;2023-09-08T08:45:50;100519.75;;;32.01;33.66
81397;BME280;70852;49.908;8.126;2023-09-08T08:48:19;100524.00;;;32.65;33.46
81397;BME280;70852;49.908;8.126;2023-09-08T08:50:47;100519.00;;;33.22;32.30
81397;BME280;70852;49.908;8.126;2023-09-08T08:53:15;100518.75;;;33.38;32.33
81397;BME280;70852;49.908;8.126;2023-09-08T08:55:46;100523.94;;;33.00;31.92
81397;BME280;70852;49.908;8.126;2023-09-08T08:58:14;100508.69;;;33.65;31.81
81397;BME280;70852;49.908;8.126;2023-09-08T09:00:40;100511.69;;;33.61;30.30
81397;BME280;70852;49.908;8.126;2023-09-08T09:03:07;100510.38;;;34.02;30.88
81397;BME280;70852;49.908;8.126;2023-09-08T09:05:34;100512.19;;;34.36;29.77
81397;BME280;70852;49.908;8.126;2023-09-08T09:08:05;100512.03;;;34.58;28.51
81397;BME280;70852;49.908;8.126;2023-09-08T09:10:33;100514.56;;;34.65;28.65
81397;BME280;70852;49.908;8.126;2023-09-08T09:12:58;100517.09;;;34.91;28.02
81397;BME280;70852;49.908;8.126;2023-09-08T09:15:51;100510.66;;;35.14;28.19
81397;BME280;70852;49.908;8.126;2023-09-08T09:18:19;100512.75;;;35.55;27.96
81397;BME280;70852;49.908;8.126;2023-09-08T09:20:54;100508.41;;;35.27;26.96
81397;BME280;70852;49.908;8.126;2023-09-08T09:23:28;100516.50;;;34.50;26.96
81397;BME280;70852;49.908;8.126;2023-09-08T09:25:54;100520.13;;;34.87;28.08
81397;BME280;70852;49.908;8.126;2023-09-08T09:28:19;100511.69;;;35.44;26.37
81397;BME280;70852;49.908;8.126;2023-09-08T09:30:49;100511.16;;;35.54;25.48
81397;BME280;70852;49.908;8.126;2023-09-08T09:33:16;100511.28;;;35.27;26.57
81397;BME280;70852;49.908;8.126;2023-09-08T09:35:44;100513.88;;;34.98;28.83
81397;BME280;70852;49.908;8.126;2023-09-08T09:38:10;100510.38;;;34.02;27.97
81397;BME280;70852;49.908;8.126;2023-09-08T09:40:36;100511.69;;;34.65;28.57
81397;BME280;70852;49.908;8.126;2023-09-08T09:43:07;100511.03;;;34.88;27.15
81397;BME280;70852;49.908;8.126;2023-09-08T09:45:36;100512.03;;;35.70;26.04
81397;BME280;70852;49.908;8.126;2023-09-08T09:48:06;100510.66;;;36.90;24.99
81397;BME280;70852;49.908;8.126;2023-09-08T09:50:34;100508.09;;;37.21;24.75
81397;BME280;70852;49.908;8.126;2023-09-08T09:53:10;100501.56;;;37.70;23.77
81397;BME280;70852;49.908;8.126;2023-09-08T09:55:37;100501.41;;;36.71;25.44
81397;BME280;70852;49.908;8.126;2023-09-08T09:58:06;100498.44;;;37.39;25.05
81397;BME280;70852;49.908;8.126;2023-09-08T10:00:36;100504.78;;;36.99;24.41
81397;BME280;70852;49.908;8.126;2023-09-08T10:03:03;100494.22;;;37.69;24.18
81397;BME280;70852;49.908;8.126;2023-09-08T10:05:31;100500.31;;;37.13;25.11
81397;BME280;70852;49.908;8.126;2023-09-08T10:07:59;100495.56;;;37.10;25.38
81397;BME280;70852;49.908;8.126;2023-09-08T10:10:26;100500.84;;;36.96;24.54
81397;BME280;70852;49.908;8.126;2023-09-08T10:12:55;100487.00;;;37.80;23.62
81397;BME280;70852;49.908;8.126;2023-09-08T10:15:25;100493.00;;;36.97;23.89
81397;BME280;70852;49.908;8.126;2023-09-08T10:17:57;100481.88;;;37.19;23.86
81397;BME280;70852;49.908;8.126;2023-09-08T10:20:24;100480.50;;;37.85;23.07
81397;BME280;70852;49.908;8.126;2023-09-08T10:25:31;100480.59;;;37.70;24.29
81397;BME280;70852;49.908;8.126;2023-09-08T10:28:01;100476.34;;;38.06;22.75
81397;BME280;70852;49.908;8.126;2023-09-08T10:30:30;100474.75;;;38.45;22.55
81397;BME280;70852;49.908;8.126;2023-09-08T10:32:56;100469.00;;;38.25;23.27
81397;BME280;70852;49.908;8.126;2023-09-08T10:35:24;100468.97;;;37.64;23.83
81397;BME280;70852;49.908;8.126;2023-09-08T10:38:55;100464.44;;;37.98;23.53
81397;BME280;70852;49.908;8.126;2023-09-08T10:43:42;100468.34;;;36.66;24.19
81397;BME280;70852;49.908;8.126;2023-09-08T10:46:21;100457.06;;;36.92;25.26
81397;BME280;70852;49.908;8.126;2023-09-08T10:48:49;100458.66;;;36.25;26.07
81397;BME280;70852;49.908;8.126;2023-09-08T10:51:21;100451.84;;;35.99;26.48
81397;BME280;70852;49.908;8.126;2023-09-08T10:53:50;100455.16;;;35.26;27.49
81397;BME280;70852;49.908;8.126;2023-09-08T10:56:19;100454.00;;;35.23;26.42
81397;BME280;70852;49.908;8.126;2023-09-08T10:58:49;100446.34;;;35.20;27.57
81397;BME280;70852;49.908;8.126;2023-09-08T11:01:20;100449.91;;;34.00;28.66
81397;BME280;70852;49.908;8.126;2023-09-08T11:03:54;100446.69;;;33.80;28.67
81397;BME280;70852;49.908;8.126;2023-09-08T11:06:20;100451.47;;;33.83;30.01
81397;BME280;70852;49.908;8.126;2023-09-08T11:08:55;100445.28;;;34.03;28.82
81397;BME280;70852;49.908;8.126;2023-09-08T11:11:23;100447.03;;;33.02;29.94
81397;BME280;70852;49.908;8.126;2023-09-08T11:13:54;100442.22;;;32.90;29.93
81397;BME280;70852;49.908;8.126;2023-09-08T11:16:24;100438.13;;;33.00;30.00
81397;BME280;70852;49.908;8.126;2023-09-08T11:18:57;100432.34;;;32.60;31.17
81397;BME280;70852;49.908;8.126;2023-09-08T11:21:25;100443.03;;;32.68;31.30
81397;BME280;70852;49.908;8.126;2023-09-08T11:23:51;100435.66;;;32.58;31.15
81397;BME280;70852;49.908;8.126;2023-09-08T11:26:18;100442.19;;;32.03;31.40
81397;BME280;70852;49.908;8.126;2023-09-08T11:28:44;100440.03;;;31.94;31.69
81397;BME280;70852;49.908;8.126;2023-09-08T11:31:14;100435.00;;;31.25;33.33
81397;BME280;70852;49.908;8.126;2023-09-08T11:33:39;100435.81;;;31.26;33.06
81397;BME280;70852;49.908;8.126;2023-09-08T11:36:11;100428.53;;;31.25;33.15
81397;BME280;70852;49.908;8.126;2023-09-08T11:38:39;100431.81;;;30.98;32.84
81397;BME280;70852;49.908;8.126;2023-09-08T11:41:06;100428.72;;;30.92;32.88
81397;BME280;70852;49.908;8.126;2023-09-08T11:43:31;100420.03;;;30.83;34.54
81397;BME280;70852;49.908;8.126;2023-09-08T11:45:59;100429.13;;;30.24;34.39
81397;BME280;70852;49.908;8.126;2023-09-08T11:48:27;100425.09;;;30.09;34.85
81397;BME280;70852;49.908;8.126;2023-09-08T11:50:53;100426.34;;;29.92;35.24
81397;BME280;70852;49.908;8.126;2023-09-08T11:53:22;100426.03;;;30.18;34.25
81397;BME280;70852;49.908;8.126;2023-09-08T11:55:50;100427.66;;;30.32;35.41
81397;BME280;70852;49.908;8.126;2023-09-08T11:58:18;100425.75;;;30.42;35.53
81397;BME280;70852;49.908;8.126;2023-09-08T12:00:44;100419.03;;;30.07;35.30
81397;BME280;70852;49.908;8.126;2023-09-08T12:03:15;100430.78;;;29.93;37.01
81397;BME280;70852;49.908;8.126;2023-09-08T12:05:44;100424.53;;;30.14;36.00
81397;BME280;70852;49.908;8.126;2023-09-08T12:08:15;100421.97;;;30.03;36.11
81397;BME280;70852;49.908;8.126;2023-09-08T12:10:43;100428.50;;;29.71;35.80
81397;BME280;70852;49.908;8.126;2023-09-08T12:13:11;100424.66;;;29.78;35.63
81397;BME280;70852;49.908;8.126;2023-09-08T12:15:42;100422.28;;;29.60;35.49
81397;BME280;70852;49.908;8.126;2023-09-08T12:18:13;100417.63;;;29.99;35.53
81397;BME280;70852;49.908;8.126;2023-09-08T12:20:41;100402.63;;;29.98;34.99
81397;BME280;70852;49.908;8.126;2023-09-08T12:23:19;100403.66;;;29.88;36.22
81397;BME280;70852;49.908;8.126;2023-09-08T12:25:48;100406.13;;;30.02;35.18
81397;BME280;70852;49.908;8.126;2023-09-08T12:28:18;100408.56;;;29.88;35.66
81397;BME280;70852;49.908;8.126;2023-09-08T12:30:44;100404.25;;;30.12;36.80
81397;BME280;70852;49.908;8.126;2023-09-08T12:33:13;100407.84;;;29.83;36.20
81397;BME280;70852;49.908;8.126;2023-09-08T12:35:44;100407.09;;;29.34;35.79
81397;BME280;70852;49.908;8.126;2023-09-08T12:38:10;100415.38;;;29.61;36.75
81397;BME280;70852;49.908;8.126;2023-09-08T12:40:37;100411.56;;;29.52;35.97
81397;BME280;70852;49.908;8.126;2023-09-08T12:43:07;100407.19;;;29.63;36.29
81397;BME280;70852;49.908;8.126;2023-09-08T12:45:35;100407.19;;;29.47;36.06
81397;BME280;70852;49.908;8.126;2023-09-08T12:48:04;100405.94;;;29.64;36.70
81397;BME280;70852;49.908;8.126;2023-09-08T12:50:31;100391.94;;;29.86;37.13
81397;BME280;70852;49.908;8.126;2023-09-08T12:52:57;100398.97;;;29.81;36.93
81397;BME280;70852;49.908;8.126;2023-09-08T12:55:23;100384.22;;;29.70;35.21
81397;BME280;70852;49.908;8.126;2023-09-08T12:57:51;100386.69;;;29.84;36.08
81397;BME280;70852;49.908;8.126;2023-09-08T13:00:22;100393.81;;;29.76;35.44